createdAt,value
2023-04-12T00:01:28.966Z,17.67
2023-04-12T00:03:56.645Z,17.67
2023-04-12T00:06:27.692Z,18.70
2023-04-12T00:08:56.190Z,18.37
2023-04-12T00:11:23.963Z,17.33
2023-04-12T00:13:51.690Z,20.53
2023-04-12T00:16:19.536Z,19.00
2023-04-12T00:18:47.060Z,20.50
2023-04-12T00:21:19.466Z,20.20
2023-04-12T00:23:47.592Z,20.67
2023-04-12T00:26:15.326Z,19.27
2023-04-12T00:28:43.609Z,18.97
2023-04-12T00:31:13.073Z,19.67
2023-04-12T00:33:40.620Z,19.40
2023-04-12T00:36:08.794Z,21.10
2023-04-12T00:38:36.702Z,21.03
2023-04-12T00:41:04.970Z,22.73
2023-04-12T00:43:32.493Z,19.27
2023-04-12T00:46:00.342Z,20.90
2023-04-12T00:48:28.970Z,19.50
2023-04-12T00:50:58.079Z,22.30
2023-04-12T00:53:25.722Z,23.33
2023-04-12T00:55:53.599Z,23.47
2023-04-12T00:58:26.729Z,23.67
2023-04-12T01:00:54.712Z,24.97
2023-04-12T01:03:24.061Z,28.37
2023-04-12T01:06:21.125Z,28.40
2023-04-12T01:08:58.329Z,27.17
2023-04-12T01:11:35.793Z,29.13
2023-04-12T01:14:30.331Z,41.27
2023-04-12T01:17:00.430Z,49.67
2023-04-12T01:19:34.359Z,49.13
2023-04-12T01:22:19.787Z,39.23
2023-04-12T01:25:01.260Z,32.70
2023-04-12T01:27:49.890Z,33.00
2023-04-12T01:30:21.260Z,30.53
2023-04-12T01:32:53.091Z,29.53
2023-04-12T01:35:22.758Z,29.37
2023-04-12T01:37:50.671Z,29.50
2023-04-12T01:40:18.927Z,27.70
2023-04-12T01:42:46.889Z,28.03
2023-04-12T01:45:14.746Z,28.10
2023-04-12T01:47:43.283Z,28.50
2023-04-12T01:51:05.499Z,28.10
2023-04-12T01:53:43.608Z,27.47
2023-04-12T01:56:11.461Z,30.87
2023-04-12T01:58:41.483Z,29.23
2023-04-12T02:01:09.179Z,26.53
2023-04-12T02:03:42.681Z,29.20
2023-04-12T02:06:10.466Z,27.67
2023-04-12T02:08:38.283Z,29.53
2023-04-12T02:11:11.895Z,27.50
2023-04-12T02:13:39.652Z,27.07
2023-04-12T02:16:10.960Z,26.70
2023-04-12T02:18:41.216Z,28.33
2023-04-12T02:21:10.439Z,27.07
2023-04-12T02:23:38.260Z,28.53
2023-04-12T02:26:07.270Z,28.90
2023-04-12T02:28:37.250Z,29.33
2023-04-12T02:31:06.021Z,29.57
2023-04-12T02:33:35.762Z,29.90
2023-04-12T02:36:10.324Z,27.80
2023-04-12T02:38:38.683Z,28.00
2023-04-12T02:41:07.972Z,27.40
2023-04-12T02:43:36.720Z,27.27
2023-04-12T02:46:09.303Z,27.33
2023-04-12T02:48:43.769Z,26.90
2023-04-12T02:51:12.187Z,26.27
2023-04-12T02:53:42.446Z,26.30
2023-04-12T02:56:19.088Z,24.37
2023-04-12T02:58:50.265Z,26.27
2023-04-12T03:01:32.197Z,27.00
2023-04-12T03:04:17.199Z,27.23
2023-04-12T03:06:52.817Z,26.30
2023-04-12T03:09:28.206Z,27.73
2023-04-12T03:11:56.534Z,25.80
2023-04-12T03:14:24.562Z,26.60
2023-04-12T03:16:53.697Z,27.00
2023-04-12T03:19:21.793Z,25.13
2023-04-12T03:21:55.731Z,27.03
2023-04-12T03:24:24.711Z,25.37
2023-04-12T03:26:52.898Z,26.13
2023-04-12T03:29:25.057Z,25.00
2023-04-12T03:31:54.910Z,26.57
2023-04-12T03:34:22.925Z,26.00
2023-04-12T03:36:55.270Z,24.97
2023-04-12T03:39:38.752Z,24.93
2023-04-12T03:42:13.587Z,25.03
2023-04-12T03:44:49.868Z,25.67
2023-04-12T03:47:17.420Z,27.83
2023-04-12T03:49:54.221Z,28.13
2023-04-12T03:52:33.511Z,28.27
2023-04-12T03:55:07.450Z,26.63
2023-04-12T03:57:36.697Z,25.50
2023-04-12T04:00:08.791Z,25.63
2023-04-12T04:02:55.222Z,25.03
2023-04-12T04:05:23.720Z,24.43
2023-04-12T04:07:51.778Z,24.20
2023-04-12T04:10:20.000Z,25.03
2023-04-12T04:12:47.839Z,25.77
2023-04-12T04:15:16.284Z,26.30
2023-04-12T04:17:46.154Z,27.07
2023-04-12T04:20:14.298Z,24.57
2023-04-12T04:22:48.224Z,22.53
2023-04-12T04:25:16.753Z,23.17
2023-04-12T04:27:52.264Z,22.50
2023-04-12T04:30:23.189Z,20.73
2023-04-12T04:32:50.986Z,23.53
2023-04-12T04:35:24.370Z,22.30
2023-04-12T04:38:04.810Z,24.17
2023-04-12T04:40:33.464Z,23.30
2023-04-12T04:43:03.267Z,21.97
2023-04-12T04:45:36.935Z,23.17
2023-04-12T04:48:04.599Z,22.47
2023-04-12T04:50:32.585Z,24.40
2023-04-12T04:53:01.071Z,22.23
2023-04-12T04:55:32.017Z,22.10
2023-04-12T04:58:00.036Z,22.80
2023-04-12T05:00:28.850Z,21.53
2023-04-12T05:02:58.625Z,24.53
2023-04-12T05:05:30.432Z,40.00
2023-04-12T05:08:10.883Z,57.43
2023-04-12T05:10:38.672Z,48.40
2023-04-12T05:13:06.240Z,43.07
2023-04-12T05:15:35.157Z,34.73
2023-04-12T05:18:03.279Z,24.87
2023-04-12T05:20:32.020Z,19.20
2023-04-12T05:22:59.921Z,40.37
2023-04-12T05:25:27.913Z,48.23
2023-04-12T05:28:03.687Z,58.73
2023-04-12T05:30:31.602Z,28.97
2023-04-12T05:32:59.563Z,40.87
2023-04-12T05:35:28.020Z,27.70
2023-04-12T05:37:59.969Z,27.77
2023-04-12T05:40:28.100Z,22.13
2023-04-12T05:42:56.166Z,21.67
2023-04-12T05:45:24.515Z,22.13
2023-04-12T05:47:52.236Z,32.80
2023-04-12T05:50:20.903Z,28.23
2023-04-12T05:52:48.798Z,20.17
2023-04-12T05:55:17.624Z,18.00
2023-04-12T05:57:49.147Z,13.13
2023-04-12T06:00:21.546Z,14.30
2023-04-12T06:02:50.666Z,13.30
2023-04-12T06:05:19.449Z,22.83
2023-04-12T06:07:48.855Z,18.60
2023-04-12T06:10:18.010Z,25.63
2023-04-12T06:12:50.972Z,20.73
2023-04-12T06:15:22.577Z,30.30
2023-04-12T06:17:56.170Z,31.13
2023-04-12T06:20:24.170Z,17.40
2023-04-12T06:22:52.145Z,13.97
2023-04-12T06:25:20.659Z,23.77
2023-04-12T06:27:52.903Z,18.93
2023-04-12T06:30:22.607Z,12.73
2023-04-12T06:32:53.315Z,12.10
2023-04-12T06:35:24.860Z,12.93
2023-04-12T06:37:52.661Z,10.97
2023-04-12T06:40:20.537Z,11.73
2023-04-12T06:42:48.209Z,11.27
2023-04-12T06:45:22.892Z,10.43
2023-04-12T06:47:50.644Z,10.03
2023-04-12T06:50:19.283Z,11.13
2023-04-12T06:52:48.475Z,10.70
2023-04-12T06:55:16.524Z,10.10
2023-04-12T06:57:49.958Z,11.13
2023-04-12T07:00:17.962Z,10.17
2023-04-12T07:02:46.270Z,9.70
2023-04-12T07:05:14.964Z,9.77
2023-04-12T07:07:42.677Z,10.30
2023-04-12T07:10:10.804Z,13.87
2023-04-12T07:12:38.468Z,12.50
2023-04-12T07:15:06.501Z,13.67
2023-04-12T07:17:33.966Z,10.20
2023-04-12T07:20:02.236Z,7.93
2023-04-12T07:22:29.922Z,8.57
2023-04-12T07:24:57.729Z,25.87
2023-04-12T07:27:26.441Z,21.73
2023-04-12T07:29:55.138Z,11.43
2023-04-12T07:32:22.914Z,8.47
2023-04-12T07:34:50.945Z,23.80
2023-04-12T07:37:19.043Z,7.10
2023-04-12T07:39:47.888Z,13.77
2023-04-12T07:42:15.655Z,8.70
2023-04-12T07:44:43.602Z,6.07
2023-04-12T07:47:11.242Z,10.90
2023-04-12T07:49:40.522Z,11.20
2023-04-12T07:52:07.962Z,9.50
2023-04-12T07:54:36.038Z,10.20
2023-04-12T07:57:04.933Z,8.43
2023-04-12T07:59:32.729Z,5.07
2023-04-12T08:02:01.091Z,3.93
2023-04-12T08:04:29.166Z,4.50
2023-04-12T08:06:56.935Z,5.50
2023-04-12T08:09:25.980Z,6.37
2023-04-12T08:11:55.611Z,4.10
2023-04-12T08:14:26.429Z,4.30
2023-04-12T08:16:53.953Z,3.03
2023-04-12T08:19:22.196Z,2.60
2023-04-12T08:21:49.897Z,2.80
2023-04-12T08:24:17.839Z,2.43
2023-04-12T08:26:45.710Z,2.53
2023-04-12T08:29:13.633Z,2.90
2023-04-12T08:31:41.994Z,3.97
2023-04-12T08:34:09.891Z,3.70
2023-04-12T08:36:37.465Z,4.37
2023-04-12T08:39:05.763Z,4.67
2023-04-12T08:41:37.607Z,3.37
2023-04-12T08:44:06.557Z,3.53
2023-04-12T08:46:36.518Z,3.90
2023-04-12T08:49:04.019Z,3.50
2023-04-12T08:51:34.182Z,4.10
2023-04-12T08:54:01.314Z,5.37
2023-04-12T08:56:29.579Z,5.10
2023-04-12T08:58:57.935Z,4.17
2023-04-12T09:01:26.028Z,3.53
2023-04-12T09:03:54.020Z,2.90
2023-04-12T09:06:21.974Z,3.80
2023-04-12T09:08:53.519Z,4.00
2023-04-12T09:11:28.791Z,4.57
2023-04-12T09:13:57.895Z,3.83
2023-04-12T09:16:40.305Z,16.83
2023-04-12T09:19:08.301Z,11.10
2023-04-12T09:21:37.002Z,8.33
2023-04-12T09:24:12.386Z,8.87
2023-04-12T09:26:42.558Z,3.70
2023-04-12T09:29:25.160Z,6.03
2023-04-12T09:32:03.364Z,5.30
2023-04-12T09:34:31.867Z,4.30
2023-04-12T09:37:01.023Z,4.47
2023-04-12T09:39:35.618Z,4.90
2023-04-12T09:42:25.446Z,6.30
2023-04-12T09:44:59.556Z,105.93
2023-04-12T09:47:41.009Z,17.70
2023-04-12T09:50:09.947Z,5.80
2023-04-12T09:52:41.293Z,8.30
2023-04-12T09:55:11.972Z,25.67
2023-04-12T09:57:44.044Z,4.87
2023-04-12T10:00:17.528Z,6.97
2023-04-12T10:02:51.961Z,3.87
2023-04-12T10:05:22.396Z,2.90
2023-04-12T10:07:51.229Z,3.58
2023-04-12T10:10:19.625Z,3.28
2023-04-12T10:12:49.110Z,3.72
2023-04-12T10:15:22.032Z,2.88
2023-04-12T10:17:57.884Z,3.55
2023-04-12T10:20:28.907Z,2.75
2023-04-12T10:23:00.514Z,3.17
2023-04-12T10:25:31.610Z,2.88
2023-04-12T10:28:21.595Z,2.70
2023-04-12T10:30:51.113Z,3.08
2023-04-12T10:33:25.451Z,3.10
2023-04-12T10:36:00.139Z,3.35
2023-04-12T10:38:32.457Z,3.50
2023-04-12T10:41:10.636Z,4.10
2023-04-12T10:43:38.372Z,4.10
2023-04-12T10:46:07.126Z,4.05
2023-04-12T10:48:52.107Z,3.70
2023-04-12T10:51:25.422Z,3.97
2023-04-12T10:54:09.711Z,3.20
2023-04-12T10:56:46.826Z,3.75
2023-04-12T10:59:34.354Z,3.08
2023-04-12T11:02:13.082Z,2.92
2023-04-12T11:05:09.315Z,3.72
2023-04-12T11:08:00.861Z,3.90
2023-04-12T11:10:47.013Z,2.83
2023-04-12T11:13:39.770Z,2.87
2023-04-12T11:16:17.661Z,3.15
2023-04-12T11:18:47.867Z,4.70
2023-04-12T11:21:17.108Z,40.83
2023-04-12T11:23:46.074Z,7.67
2023-04-12T11:26:21.133Z,4.47
2023-04-12T11:28:53.273Z,5.07
2023-04-12T11:31:22.017Z,5.53
2023-04-12T11:33:49.588Z,4.97
2023-04-12T11:36:19.218Z,5.53
2023-04-12T11:38:48.181Z,5.45
2023-04-12T11:41:19.060Z,4.40
2023-04-12T11:43:48.641Z,4.05
2023-04-12T11:46:18.414Z,3.53
2023-04-12T11:48:47.407Z,3.92
2023-04-12T11:51:25.470Z,4.05
2023-04-12T11:53:54.836Z,4.07
2023-04-12T11:56:23.289Z,3.78
2023-04-12T11:58:51.144Z,4.10
2023-04-12T12:01:21.117Z,3.90
2023-04-12T12:03:49.442Z,4.47
2023-04-12T12:06:19.149Z,4.05
2023-04-12T12:08:47.320Z,3.53
2023-04-12T12:11:15.955Z,4.03
2023-04-12T12:13:54.302Z,4.15
2023-04-12T12:16:28.580Z,3.83
2023-04-12T12:18:57.597Z,4.15
2023-04-12T12:21:27.436Z,3.78
2023-04-12T12:23:57.627Z,3.60
2023-04-12T12:26:28.612Z,4.13
2023-04-12T12:28:57.960Z,3.88
2023-04-12T12:31:28.867Z,4.38
2023-04-12T12:33:59.409Z,4.72
2023-04-12T12:36:36.850Z,5.18
2023-04-12T12:39:11.526Z,5.22
2023-04-12T12:41:41.823Z,5.20
2023-04-12T12:44:11.573Z,7.27
2023-04-12T12:46:53.335Z,4.82
2023-04-12T12:49:23.244Z,5.33
2023-04-12T12:51:51.300Z,4.37
2023-04-12T12:54:36.171Z,9.13
2023-04-12T12:57:06.802Z,9.00
2023-04-12T12:59:34.778Z,7.83
2023-04-12T13:02:04.929Z,9.60
2023-04-12T13:04:32.920Z,8.37
2023-04-12T13:07:00.754Z,8.33
2023-04-12T13:09:28.416Z,8.37
2023-04-12T13:11:57.879Z,7.77
2023-04-12T13:14:25.796Z,10.83
2023-04-12T13:16:54.452Z,7.60
2023-04-12T13:19:21.986Z,12.20
2023-04-12T13:21:52.620Z,10.57
2023-04-12T13:24:21.207Z,9.77
2023-04-12T13:26:49.416Z,14.43
2023-04-12T13:29:17.532Z,16.00
2023-04-12T13:31:45.768Z,14.63
2023-04-12T13:34:13.999Z,15.73
2023-04-12T13:36:42.224Z,17.43
2023-04-12T13:39:11.392Z,15.77
2023-04-12T13:41:39.524Z,16.67
2023-04-12T13:44:07.253Z,14.43
2023-04-12T13:46:35.683Z,14.50
2023-04-12T13:49:03.461Z,14.10
2023-04-12T13:51:32.823Z,14.23
2023-04-12T13:54:01.125Z,12.57
2023-04-12T13:56:30.866Z,13.53
2023-04-12T13:58:59.411Z,11.87
2023-04-12T14:01:27.742Z,11.13
2023-04-12T14:03:55.927Z,12.87
2023-04-12T14:06:23.981Z,17.30
2023-04-12T14:08:51.737Z,13.00
2023-04-12T14:11:20.230Z,13.00
2023-04-12T14:13:48.127Z,11.10
2023-04-12T14:16:16.361Z,10.53
2023-04-12T14:18:44.818Z,11.10
2023-04-12T14:21:12.902Z,9.63
2023-04-12T14:23:41.738Z,9.53
2023-04-12T14:26:16.213Z,11.27
2023-04-12T14:28:44.254Z,8.60
2023-04-12T14:31:15.374Z,9.17
2023-04-12T14:33:43.565Z,9.93
2023-04-12T14:36:11.621Z,9.03
2023-04-12T14:38:39.333Z,10.17
2023-04-12T14:41:10.290Z,9.30
2023-04-12T14:43:38.298Z,9.53
2023-04-12T14:46:06.760Z,9.00
2023-04-12T14:48:34.565Z,9.63
2023-04-12T14:51:04.109Z,9.10
2023-04-12T14:53:32.283Z,7.33
2023-04-12T14:56:02.845Z,7.70
2023-04-12T14:58:31.475Z,8.47
2023-04-12T15:01:01.187Z,7.87
2023-04-12T15:03:30.884Z,7.97
2023-04-12T15:05:59.313Z,8.07
2023-04-12T15:08:29.147Z,8.13
2023-04-12T15:10:57.223Z,7.53
2023-04-12T15:13:30.045Z,7.47
2023-04-12T15:16:01.108Z,6.03
2023-04-12T15:18:28.834Z,11.23
2023-04-12T15:21:00.337Z,7.17
2023-04-12T15:23:28.135Z,7.23
2023-04-12T15:26:02.991Z,6.90
2023-04-12T15:28:31.872Z,7.28
2023-04-12T15:31:00.132Z,7.60
2023-04-12T15:33:29.584Z,6.50
2023-04-12T15:35:58.057Z,9.97
2023-04-12T15:38:26.225Z,8.23
2023-04-12T15:40:56.128Z,7.28
2023-04-12T15:43:25.776Z,6.75
2023-04-12T15:45:54.914Z,6.82
2023-04-12T15:48:24.096Z,5.82
2023-04-12T15:50:52.562Z,6.15
2023-04-12T15:53:22.002Z,5.78
2023-04-12T15:55:55.264Z,6.80
2023-04-12T15:58:24.609Z,7.38
2023-04-12T16:00:55.919Z,23.63
2023-04-12T16:03:23.808Z,6.60
2023-04-12T16:05:53.712Z,6.90
2023-04-12T16:08:22.544Z,8.83
2023-04-12T16:10:51.213Z,30.10
2023-04-12T16:13:18.648Z,12.50
2023-04-12T16:15:47.074Z,9.50
2023-04-12T16:18:14.428Z,6.83
2023-04-12T16:20:41.992Z,8.90
2023-04-12T16:23:09.616Z,20.83
2023-04-12T16:25:37.023Z,15.17
2023-04-12T16:28:05.302Z,10.63
2023-04-12T16:30:33.625Z,10.30
2023-04-12T16:33:01.617Z,6.97
2023-04-12T16:35:30.024Z,6.47
2023-04-12T16:37:57.794Z,5.93
2023-04-12T16:40:26.042Z,8.10
2023-04-12T16:42:54.454Z,12.47
2023-04-12T16:45:22.688Z,17.67
2023-04-12T16:47:50.855Z,15.10
2023-04-12T16:50:19.457Z,10.33
2023-04-12T16:52:47.483Z,12.47
2023-04-12T16:55:16.244Z,10.53
2023-04-12T16:57:46.110Z,8.93
2023-04-12T17:00:23.108Z,10.47
2023-04-12T17:02:52.860Z,13.27
2023-04-12T17:05:22.347Z,14.00
2023-04-12T17:07:54.592Z,34.23
2023-04-12T17:10:24.567Z,11.83
2023-04-12T17:12:54.316Z,85.63
2023-04-12T17:15:23.481Z,47.63
2023-04-12T17:18:01.368Z,29.60
2023-04-12T17:20:30.873Z,26.07
2023-04-12T17:22:59.854Z,21.57
2023-04-12T17:25:31.316Z,17.00
2023-04-12T17:28:02.934Z,20.73
2023-04-12T17:30:31.500Z,27.63
2023-04-12T17:33:01.776Z,69.63
2023-04-12T17:35:30.878Z,41.93
2023-04-12T17:37:59.178Z,33.87
2023-04-12T17:40:28.161Z,30.40
2023-04-12T17:42:56.349Z,30.67
2023-04-12T17:45:26.606Z,30.07
2023-04-12T17:47:55.681Z,55.33
2023-04-12T17:50:25.418Z,27.33
2023-04-12T17:52:55.713Z,31.00
2023-04-12T17:55:26.243Z,37.77
2023-04-12T17:57:55.834Z,36.63
2023-04-12T18:00:25.652Z,33.63
2023-04-12T18:02:54.536Z,33.97
2023-04-12T18:05:23.372Z,31.27
2023-04-12T18:07:51.505Z,32.03
2023-04-12T18:10:23.364Z,26.17
2023-04-12T18:12:51.390Z,23.73
2023-04-12T18:15:19.811Z,23.03
2023-04-12T18:17:48.112Z,37.63
2023-04-12T18:20:17.260Z,30.80
2023-04-12T18:22:45.946Z,30.37
2023-04-12T18:25:15.154Z,31.63
2023-04-12T18:27:43.516Z,33.57
2023-04-12T18:30:11.867Z,30.93
2023-04-12T18:32:40.913Z,32.27
2023-04-12T18:35:11.775Z,31.83
2023-04-12T18:37:41.032Z,30.27
2023-04-12T18:40:10.512Z,39.97
2023-04-12T18:42:38.359Z,46.00
2023-04-12T18:45:10.563Z,36.03
2023-04-12T18:47:39.497Z,34.17
2023-04-12T18:50:10.331Z,34.83
2023-04-12T18:52:38.918Z,33.50
2023-04-12T18:55:08.091Z,31.43
2023-04-12T18:57:36.369Z,28.57
2023-04-12T19:00:10.234Z,27.43
2023-04-12T19:02:39.115Z,26.10
2023-04-12T19:05:10.584Z,24.63
2023-04-12T19:07:38.839Z,25.73
2023-04-12T19:10:09.126Z,28.17
2023-04-12T19:12:38.158Z,29.90
2023-04-12T19:15:09.145Z,34.07
2023-04-12T19:17:39.278Z,30.13
2023-04-12T19:20:11.307Z,30.67
2023-04-12T19:22:40.082Z,31.53
2023-04-12T19:25:10.120Z,31.87
2023-04-12T19:27:39.845Z,33.43
2023-04-12T19:30:11.110Z,36.60
2023-04-12T19:32:39.737Z,35.17
2023-04-12T19:35:10.047Z,31.83
2023-04-12T19:37:38.341Z,36.03
2023-04-12T19:40:08.311Z,39.70
2023-04-12T19:42:36.535Z,41.07
2023-04-12T19:45:05.210Z,36.23
2023-04-12T19:47:34.491Z,38.57
2023-04-12T19:50:02.650Z,41.67
2023-04-12T19:52:30.863Z,40.77
2023-04-12T19:55:01.303Z,41.30
2023-04-12T19:57:30.001Z,38.73
2023-04-12T19:59:58.725Z,34.33
2023-04-12T20:02:26.895Z,32.03
2023-04-12T20:04:55.801Z,31.73
2023-04-12T20:07:24.085Z,30.77
2023-04-12T20:09:52.031Z,32.03
2023-04-12T20:12:20.052Z,33.50
2023-04-12T20:14:48.768Z,31.80
2023-04-12T20:17:16.741Z,30.57
2023-04-12T20:19:44.936Z,28.87
2023-04-12T20:22:13.693Z,28.37
2023-04-12T20:24:42.424Z,27.83
2023-04-12T20:27:10.893Z,28.07
2023-04-12T20:29:39.874Z,27.47
2023-04-12T20:32:08.017Z,29.17
2023-04-12T20:34:36.612Z,30.33
2023-04-12T20:37:05.588Z,27.47
2023-04-12T20:39:34.173Z,22.27
2023-04-12T20:42:02.617Z,20.40
2023-04-12T20:44:31.646Z,17.37
2023-04-12T20:46:59.859Z,18.27
2023-04-12T20:49:28.214Z,18.37
2023-04-12T20:51:59.109Z,18.60
2023-04-12T20:54:30.091Z,17.73
2023-04-12T20:56:59.666Z,19.03
2023-04-12T20:59:30.577Z,18.53
2023-04-12T21:01:59.443Z,21.77
2023-04-12T21:04:27.946Z,26.17
2023-04-12T21:06:55.902Z,24.03
2023-04-12T21:09:24.789Z,22.43
2023-04-12T21:11:53.296Z,23.03
2023-04-12T21:14:21.294Z,24.87
2023-04-12T21:16:49.131Z,27.67
2023-04-12T21:19:18.491Z,25.37
2023-04-12T21:21:46.483Z,25.13
2023-04-12T21:24:14.546Z,25.40
2023-04-12T21:26:42.948Z,25.20
2023-04-12T21:29:12.269Z,24.43
2023-04-12T21:31:41.725Z,24.33
2023-04-12T21:34:10.278Z,24.33
2023-04-12T21:36:38.751Z,24.07
2023-04-12T21:39:07.921Z,21.73
2023-04-12T21:41:37.363Z,22.63
2023-04-12T21:44:05.208Z,21.10
2023-04-12T21:46:34.589Z,22.13
2023-04-12T21:49:02.847Z,20.60
2023-04-12T21:51:31.263Z,21.20
2023-04-12T21:54:00.389Z,20.93
2023-04-12T21:56:28.907Z,20.33
2023-04-12T21:59:02.696Z,21.77
2023-04-12T22:01:33.303Z,22.70
2023-04-12T22:04:01.669Z,22.23
2023-04-12T22:06:29.347Z,21.43
2023-04-12T22:09:02.586Z,21.63
2023-04-12T22:11:30.598Z,20.10
2023-04-12T22:13:58.754Z,21.63
2023-04-12T22:16:26.384Z,20.33
2023-04-12T22:18:55.735Z,19.17
2023-04-12T22:21:23.289Z,20.80
2023-04-12T22:23:51.108Z,20.10
2023-04-12T22:26:18.558Z,21.43
2023-04-12T22:28:50.022Z,22.10
2023-04-12T22:31:22.052Z,20.83
2023-04-12T22:33:50.031Z,20.67
2023-04-12T22:36:17.936Z,20.97
2023-04-12T22:38:47.655Z,19.53
2023-04-12T22:41:19.203Z,20.53
2023-04-12T22:43:47.997Z,20.80
2023-04-12T22:46:16.008Z,22.27
2023-04-12T22:48:50.055Z,22.40
2023-04-12T22:51:18.043Z,22.23
2023-04-12T22:53:45.950Z,20.20
2023-04-12T22:56:13.593Z,21.70
2023-04-12T22:58:42.948Z,22.07
2023-04-12T23:01:10.987Z,20.27
2023-04-12T23:03:41.706Z,21.03
2023-04-12T23:06:12.773Z,21.40
2023-04-12T23:08:40.788Z,20.83
2023-04-12T23:11:08.429Z,24.03
2023-04-12T23:13:36.255Z,21.60
2023-04-12T23:16:05.090Z,23.20
2023-04-12T23:18:33.083Z,21.97
2023-04-12T23:21:01.825Z,21.97
2023-04-12T23:23:29.762Z,22.60
2023-04-12T23:25:57.323Z,23.70
2023-04-12T23:28:25.860Z,22.87
2023-04-12T23:30:53.398Z,23.53
2023-04-12T23:33:21.998Z,24.30
2023-04-12T23:35:52.908Z,24.63
2023-04-12T23:38:32.781Z,24.67
2023-04-12T23:41:02.240Z,27.50
2023-04-12T23:43:32.440Z,26.87
2023-04-12T23:46:00.068Z,26.40
2023-04-12T23:48:28.140Z,26.83
2023-04-12T23:50:55.682Z,26.00
2023-04-12T23:53:23.614Z,26.70
2023-04-12T23:55:51.995Z,25.83
2023-04-12T23:58:20.835Z,25.77
